createdAt,value
2022-12-23T00:00:32.306Z,999.29
2022-12-23T00:01:32.327Z,999.20
2022-12-23T00:02:32.473Z,999.19
2022-12-23T00:03:32.419Z,999.17
2022-12-23T00:04:32.316Z,999.19
2022-12-23T00:05:37.539Z,999.22
2022-12-23T00:06:32.375Z,999.16
2022-12-23T00:07:32.301Z,999.17
2022-12-23T00:08:32.287Z,999.13
2022-12-23T00:09:32.278Z,999.15
2022-12-23T00:10:32.286Z,999.08
2022-12-23T00:11:32.263Z,999.09
2022-12-23T00:12:32.284Z,999.12
2022-12-23T00:13:32.280Z,999.05
2022-12-23T00:14:32.288Z,999.01
2022-12-23T00:15:32.263Z,999.01
2022-12-23T00:16:32.305Z,998.98
2022-12-23T00:17:32.248Z,998.92
2022-12-23T00:18:32.257Z,998.91
2022-12-23T00:19:32.288Z,998.92
2022-12-23T00:20:32.373Z,998.87
2022-12-23T00:21:32.274Z,998.87
2022-12-23T00:22:32.256Z,998.86
2022-12-23T00:23:32.239Z,998.87
2022-12-23T00:24:32.241Z,998.81
2022-12-23T00:25:32.236Z,998.81
2022-12-23T00:26:32.239Z,998.84
2022-12-23T00:27:37.335Z,998.81
2022-12-23T00:28:32.227Z,998.79
2022-12-23T00:29:32.224Z,998.82
2022-12-23T00:30:32.272Z,998.81
2022-12-23T00:31:32.353Z,998.78
2022-12-23T00:32:32.225Z,998.81
2022-12-23T00:33:32.228Z,998.77
2022-12-23T00:34:32.229Z,998.81
2022-12-23T00:35:32.227Z,998.82
2022-12-23T00:36:32.307Z,998.78
2022-12-23T00:37:32.208Z,998.79
2022-12-23T00:38:32.203Z,998.73
2022-12-23T00:39:32.212Z,998.70
2022-12-23T00:40:32.195Z,998.67
2022-12-23T00:41:32.214Z,998.61
2022-12-23T00:42:32.193Z,998.65
2022-12-23T00:43:32.194Z,998.67
2022-12-23T00:44:32.187Z,998.70
2022-12-23T00:45:32.216Z,998.69
2022-12-23T00:46:32.231Z,998.71
2022-12-23T00:47:32.199Z,998.73
2022-12-23T00:48:32.180Z,998.71
2022-12-23T00:49:32.206Z,998.73
2022-12-23T00:50:32.167Z,998.72
2022-12-23T00:51:32.181Z,998.68
2022-12-23T00:52:32.200Z,998.74
2022-12-23T00:53:32.160Z,998.75
2022-12-23T00:54:32.158Z,998.75
2022-12-23T00:55:32.159Z,998.77
2022-12-23T00:56:32.152Z,998.77
2022-12-23T00:57:32.171Z,998.72
2022-12-23T00:58:32.159Z,998.76
2022-12-23T00:59:32.140Z,998.72
2022-12-23T01:00:32.164Z,998.71
2022-12-23T01:01:32.385Z,998.70
2022-12-23T01:02:32.213Z,998.74
2022-12-23T01:03:32.204Z,998.70
2022-12-23T01:04:32.117Z,998.71
2022-12-23T01:05:32.136Z,998.74
2022-12-23T01:06:32.130Z,998.70
2022-12-23T01:07:32.133Z,998.70
2022-12-23T01:08:32.121Z,998.71
2022-12-23T01:09:32.135Z,998.71
2022-12-23T01:10:32.121Z,998.68
2022-12-23T01:11:32.165Z,998.59
2022-12-23T01:12:32.123Z,998.66
2022-12-23T01:13:32.098Z,998.60
2022-12-23T01:14:32.123Z,998.61
2022-12-23T01:15:32.123Z,998.63
2022-12-23T01:16:32.116Z,998.60
2022-12-23T01:17:32.099Z,998.58
2022-12-23T01:18:32.095Z,998.58
2022-12-23T01:19:32.100Z,998.59
2022-12-23T01:20:32.108Z,998.58
2022-12-23T01:21:32.108Z,998.52
2022-12-23T01:22:32.091Z,998.57
2022-12-23T01:23:32.085Z,998.54
2022-12-23T01:24:32.097Z,998.49
2022-12-23T01:25:32.089Z,998.54
2022-12-23T01:26:32.077Z,998.51
2022-12-23T01:27:32.185Z,998.54
2022-12-23T01:28:32.078Z,998.52
2022-12-23T01:29:32.069Z,998.46
2022-12-23T01:30:32.056Z,998.56
2022-12-23T01:31:32.093Z,998.53
2022-12-23T01:32:32.071Z,998.56
2022-12-23T01:33:32.073Z,998.55
2022-12-23T01:34:36.720Z,998.51
2022-12-23T01:35:32.061Z,998.56
2022-12-23T01:36:32.047Z,998.54
2022-12-23T01:37:32.049Z,998.53
2022-12-23T01:38:32.054Z,998.53
2022-12-23T01:39:32.031Z,998.54
2022-12-23T01:40:32.030Z,998.54
2022-12-23T01:41:32.058Z,998.50
2022-12-23T01:42:32.029Z,998.52
2022-12-23T01:43:32.036Z,998.52
2022-12-23T01:44:32.012Z,998.46
2022-12-23T01:45:32.058Z,998.50
2022-12-23T01:46:32.089Z,998.47
2022-12-23T01:47:32.053Z,998.47
2022-12-23T01:48:32.011Z,998.44
2022-12-23T01:49:32.127Z,998.45
2022-12-23T01:50:32.032Z,998.47
2022-12-23T01:51:32.005Z,998.44
2022-12-23T01:52:31.988Z,998.36
2022-12-23T01:53:32.013Z,998.31
2022-12-23T01:54:32.004Z,998.34
2022-12-23T01:55:31.989Z,998.34
2022-12-23T01:56:32.014Z,998.34
2022-12-23T01:57:32.005Z,998.32
2022-12-23T01:58:31.997Z,998.32
2022-12-23T01:59:31.979Z,998.31
2022-12-23T02:00:31.997Z,998.30
2022-12-23T02:01:32.143Z,998.29
2022-12-23T02:02:32.131Z,998.24
2022-12-23T02:03:32.082Z,998.27
2022-12-23T02:04:31.954Z,998.17
2022-12-23T02:05:32.012Z,998.16
2022-12-23T02:06:31.975Z,998.20
2022-12-23T02:07:31.972Z,998.21
2022-12-23T02:08:31.984Z,998.16
2022-12-23T02:09:31.951Z,998.15
2022-12-23T02:10:31.955Z,998.18
2022-12-23T02:11:31.981Z,998.14
2022-12-23T02:12:31.951Z,998.12
2022-12-23T02:13:31.945Z,998.11
2022-12-23T02:14:31.969Z,998.12
2022-12-23T02:15:31.959Z,998.09
2022-12-23T02:16:31.940Z,998.08
2022-12-23T02:17:31.935Z,998.09
2022-12-23T02:18:31.936Z,998.10
2022-12-23T02:19:31.921Z,998.10
2022-12-23T02:20:31.944Z,998.07
2022-12-23T02:21:31.939Z,998.07
2022-12-23T02:22:31.934Z,998.09
2022-12-23T02:23:31.917Z,998.11
2022-12-23T02:24:31.928Z,998.11
2022-12-23T02:25:31.903Z,998.07
2022-12-23T02:26:31.902Z,998.05
2022-12-23T02:27:31.956Z,998.01
2022-12-23T02:28:31.939Z,998.01
2022-12-23T02:29:31.893Z,998.05
2022-12-23T02:30:31.932Z,997.98
2022-12-23T02:31:31.990Z,998.02
2022-12-23T02:32:31.899Z,997.98
2022-12-23T02:33:31.907Z,997.96
2022-12-23T02:34:31.880Z,997.93
2022-12-23T02:35:31.879Z,997.98
2022-12-23T02:36:31.888Z,997.96
2022-12-23T02:37:31.894Z,997.91
2022-12-23T02:38:31.869Z,997.93
2022-12-23T02:39:31.865Z,997.86
2022-12-23T02:40:31.869Z,997.88
2022-12-23T02:41:31.859Z,997.85
2022-12-23T02:42:31.893Z,997.82
2022-12-23T02:43:31.868Z,997.82
2022-12-23T02:44:31.864Z,997.81
2022-12-23T02:45:31.869Z,997.86
2022-12-23T02:46:31.927Z,997.84
2022-12-23T02:47:31.856Z,997.83
2022-12-23T02:48:31.861Z,997.86
2022-12-23T02:49:31.840Z,997.84
2022-12-23T02:50:31.858Z,997.83
2022-12-23T02:51:31.846Z,997.79
2022-12-23T02:52:31.862Z,997.73
2022-12-23T02:53:31.847Z,997.75
2022-12-23T02:54:31.927Z,997.66
2022-12-23T02:55:31.831Z,997.67
2022-12-23T02:56:31.841Z,997.68
2022-12-23T02:57:31.857Z,997.69
2022-12-23T02:58:31.815Z,997.69
2022-12-23T02:59:31.825Z,997.69
2022-12-23T03:00:31.857Z,997.65
2022-12-23T03:01:31.969Z,997.67
2022-12-23T03:02:31.943Z,997.63
2022-12-23T03:03:31.856Z,997.65
2022-12-23T03:04:31.820Z,997.59
2022-12-23T03:05:31.814Z,997.60
2022-12-23T03:06:31.816Z,997.60
2022-12-23T03:07:31.864Z,997.58
2022-12-23T03:08:31.823Z,997.63
2022-12-23T03:09:31.807Z,997.55
2022-12-23T03:10:31.788Z,997.55
2022-12-23T03:11:31.793Z,997.57
2022-12-23T03:12:31.806Z,997.54
2022-12-23T03:13:31.807Z,997.57
2022-12-23T03:16:03.925Z,997.47
2022-12-23T03:17:03.855Z,997.48
2022-12-23T03:18:03.886Z,997.49
2022-12-23T03:19:03.848Z,997.50
2022-12-23T03:20:03.859Z,997.52
2022-12-23T03:21:03.843Z,997.54
2022-12-23T03:22:03.829Z,997.50
2022-12-23T03:23:03.831Z,997.52
2022-12-23T03:24:03.865Z,997.47
2022-12-23T03:25:03.823Z,997.49
2022-12-23T03:26:03.859Z,997.52
2022-12-23T03:27:03.817Z,997.47
2022-12-23T03:28:03.821Z,997.52
2022-12-23T03:29:03.826Z,997.50
2022-12-23T03:30:03.829Z,997.49
2022-12-23T03:31:03.880Z,997.48
2022-12-23T03:32:03.816Z,997.49
2022-12-23T03:33:03.819Z,997.47
2022-12-23T03:34:03.820Z,997.44
2022-12-23T03:35:03.797Z,997.42
2022-12-23T03:36:12.036Z,997.40
2022-12-23T03:37:03.850Z,997.39
2022-12-23T03:38:03.854Z,997.35
2022-12-23T03:39:03.788Z,997.38
2022-12-23T03:40:03.799Z,997.35
2022-12-23T03:41:03.791Z,997.32
2022-12-23T03:42:03.792Z,997.32
2022-12-23T03:43:03.796Z,997.34
2022-12-23T03:44:03.783Z,997.32
2022-12-23T03:45:37.152Z,997.30
2022-12-23T03:46:03.854Z,997.32
2022-12-23T03:47:03.780Z,997.37
2022-12-23T03:48:03.811Z,997.29
2022-12-23T03:49:03.782Z,997.32
2022-12-23T03:50:03.782Z,997.31
2022-12-23T03:51:03.755Z,997.26
2022-12-23T03:52:03.779Z,997.31
2022-12-23T03:53:03.755Z,997.32
2022-12-23T03:54:03.776Z,997.26
2022-12-23T03:55:03.751Z,997.31
2022-12-23T03:56:03.781Z,997.31
2022-12-23T03:57:03.759Z,997.30
2022-12-23T03:58:03.748Z,997.34
2022-12-23T03:59:03.759Z,997.28
2022-12-23T04:00:03.761Z,997.26
2022-12-23T04:01:03.779Z,997.25
2022-12-23T04:02:03.868Z,997.22
2022-12-23T04:03:03.787Z,997.19
2022-12-23T04:04:03.828Z,997.21
2022-12-23T04:05:03.754Z,997.22
2022-12-23T04:06:03.729Z,997.24
2022-12-23T04:07:03.742Z,997.25
2022-12-23T04:08:03.750Z,997.18
2022-12-23T04:09:03.754Z,997.19
2022-12-23T04:10:03.744Z,997.22
2022-12-23T04:11:03.716Z,997.16
2022-12-23T04:12:03.735Z,997.21
2022-12-23T04:13:03.716Z,997.18
2022-12-23T04:14:03.708Z,997.18
2022-12-23T04:15:09.007Z,997.17
2022-12-23T04:16:03.824Z,997.18
2022-12-23T04:17:03.707Z,997.14
2022-12-23T04:18:03.730Z,997.16
2022-12-23T04:19:03.705Z,997.10
2022-12-23T04:20:03.702Z,997.11
2022-12-23T04:21:03.752Z,997.08
2022-12-23T04:22:03.703Z,997.09
2022-12-23T04:23:03.737Z,997.07
2022-12-23T04:24:03.694Z,997.06
2022-12-23T04:25:03.709Z,997.07
2022-12-23T04:26:03.739Z,997.07
2022-12-23T04:27:03.676Z,997.06
2022-12-23T04:28:03.699Z,997.02
2022-12-23T04:29:03.689Z,997.06
2022-12-23T04:30:03.684Z,997.08
2022-12-23T04:31:03.736Z,997.02
2022-12-23T04:32:03.683Z,997.06
2022-12-23T04:33:03.698Z,997.05
2022-12-23T04:34:03.669Z,997.05
2022-12-23T04:35:03.671Z,997.06
2022-12-23T04:36:03.671Z,997.05
2022-12-23T04:37:03.666Z,997.02
2022-12-23T04:38:03.659Z,997.03
2022-12-23T04:39:03.674Z,997.03
2022-12-23T04:40:03.672Z,997.04
2022-12-23T04:41:03.651Z,997.02
2022-12-23T04:42:03.671Z,997.05
2022-12-23T04:43:03.649Z,997.00
2022-12-23T04:44:03.647Z,996.97
2022-12-23T04:45:03.711Z,996.99
2022-12-23T04:46:03.650Z,997.00
2022-12-23T04:47:03.655Z,996.97
2022-12-23T04:48:16.711Z,997.00
2022-12-23T04:49:03.670Z,997.02
2022-12-23T04:50:03.630Z,997.03
2022-12-23T04:51:03.638Z,997.04
2022-12-23T04:52:03.621Z,996.99
2022-12-23T04:53:03.628Z,997.01
2022-12-23T04:54:03.644Z,997.00
2022-12-23T04:55:03.643Z,997.00
2022-12-23T04:56:03.612Z,996.97
2022-12-23T04:57:03.620Z,997.03
2022-12-23T04:58:03.609Z,997.00
2022-12-23T04:59:03.619Z,996.99
2022-12-23T05:00:03.600Z,996.99
2022-12-23T05:01:03.637Z,997.02
2022-12-23T05:02:03.824Z,997.04
2022-12-23T05:03:03.764Z,997.06
2022-12-23T05:04:03.601Z,997.03
2022-12-23T05:05:03.620Z,997.02
2022-12-23T05:06:03.583Z,996.99
2022-12-23T05:07:03.592Z,996.96
2022-12-23T05:08:03.614Z,997.04
2022-12-23T05:09:03.585Z,997.04
2022-12-23T05:10:03.579Z,997.08
2022-12-23T05:11:03.600Z,997.05
2022-12-23T05:12:03.596Z,997.11
2022-12-23T05:13:03.571Z,997.11
2022-12-23T05:14:03.571Z,997.13
2022-12-23T05:15:03.590Z,997.10
2022-12-23T05:16:03.629Z,997.14
2022-12-23T05:17:07.388Z,997.14
2022-12-23T05:18:03.591Z,997.18
2022-12-23T05:19:03.543Z,997.13
2022-12-23T05:20:03.540Z,997.14
2022-12-23T05:21:03.578Z,997.12
2022-12-23T05:22:03.554Z,997.08
2022-12-23T05:23:03.560Z,997.06
2022-12-23T05:24:03.546Z,997.05
2022-12-23T05:25:03.535Z,997.02
2022-12-23T05:26:03.563Z,996.99
2022-12-23T05:27:03.565Z,996.96
2022-12-23T05:28:03.524Z,997.00
2022-12-23T05:29:03.532Z,996.93
2022-12-23T05:30:03.556Z,997.00
2022-12-23T05:31:03.615Z,997.04
2022-12-23T05:32:03.583Z,996.97
2022-12-23T05:33:03.592Z,996.99
2022-12-23T05:34:06.630Z,996.97
2022-12-23T05:35:03.524Z,996.95
2022-12-23T05:36:03.521Z,996.98
2022-12-23T05:37:03.515Z,996.98
2022-12-23T05:38:03.548Z,996.97
2022-12-23T05:39:03.504Z,997.01
2022-12-23T05:40:03.518Z,996.97
2022-12-23T05:41:03.522Z,996.96
2022-12-23T05:42:03.683Z,996.97
2022-12-23T05:43:03.522Z,997.03
2022-12-23T05:44:03.500Z,996.98
2022-12-23T05:45:03.528Z,997.04
2022-12-23T05:46:03.556Z,997.00
2022-12-23T05:47:03.501Z,997.02
2022-12-23T05:48:03.505Z,997.01
2022-12-23T05:49:03.520Z,997.03
2022-12-23T05:50:03.502Z,997.06
2022-12-23T05:51:03.470Z,997.13
2022-12-23T05:52:03.485Z,997.11
2022-12-23T05:53:03.481Z,997.09
2022-12-23T05:54:03.466Z,997.12
2022-12-23T05:55:03.479Z,997.10
2022-12-23T05:56:03.524Z,997.06
2022-12-23T05:57:03.461Z,997.07
2022-12-23T05:58:03.509Z,997.05
2022-12-23T05:59:03.483Z,997.05
2022-12-23T06:00:03.473Z,997.05
2022-12-23T06:01:03.452Z,997.07
2022-12-23T06:02:03.690Z,997.06
2022-12-23T06:03:03.758Z,997.06
2022-12-23T06:04:03.572Z,997.08
2022-12-23T06:05:03.458Z,997.08
2022-12-23T06:06:03.453Z,997.11
2022-12-23T06:07:03.473Z,997.12
2022-12-23T06:08:03.443Z,997.13
2022-12-23T06:09:03.455Z,997.10
2022-12-23T06:10:03.459Z,997.14
2022-12-23T06:11:03.454Z,997.12
2022-12-23T06:12:03.439Z,997.15
2022-12-23T06:13:03.444Z,997.16
2022-12-23T06:14:03.426Z,997.22
2022-12-23T06:15:03.464Z,997.20
2022-12-23T06:16:03.514Z,997.19
2022-12-23T06:17:03.529Z,997.24
2022-12-23T06:18:03.431Z,997.30
2022-12-23T06:19:03.426Z,997.31
2022-12-23T06:20:03.476Z,997.34
2022-12-23T06:21:03.427Z,997.34
2022-12-23T06:22:03.431Z,997.32
2022-12-23T06:23:03.399Z,997.39
2022-12-23T06:24:03.418Z,997.36
2022-12-23T06:25:03.407Z,997.38
2022-12-23T06:26:03.469Z,997.39
2022-12-23T06:27:03.397Z,997.46
2022-12-23T06:28:03.432Z,997.38
2022-12-23T06:29:03.410Z,997.37
2022-12-23T06:30:03.432Z,997.39
2022-12-23T06:31:03.425Z,997.37
2022-12-23T06:32:03.491Z,997.35
2022-12-23T06:33:03.411Z,997.32
2022-12-23T06:34:03.391Z,997.38
2022-12-23T06:35:03.399Z,997.33
2022-12-23T06:36:03.385Z,997.40
2022-12-23T06:37:03.389Z,997.43
2022-12-23T06:38:06.393Z,997.43
2022-12-23T06:39:03.373Z,997.39
2022-12-23T06:40:03.356Z,997.44
2022-12-23T06:41:03.363Z,997.47
2022-12-23T06:42:03.374Z,997.49
2022-12-23T06:43:03.396Z,997.49
2022-12-23T06:44:03.367Z,997.47
2022-12-23T06:45:03.351Z,997.47
2022-12-23T06:46:03.398Z,997.52
2022-12-23T06:47:03.367Z,997.54
2022-12-23T06:48:03.387Z,997.55
2022-12-23T06:49:09.053Z,997.64
2022-12-23T06:50:03.349Z,997.64
2022-12-23T06:51:03.357Z,997.68
2022-12-23T06:52:03.344Z,997.71
2022-12-23T06:53:03.361Z,997.68
2022-12-23T06:54:03.361Z,997.72
2022-12-23T06:55:03.368Z,997.72
2022-12-23T06:56:03.335Z,997.73
2022-12-23T06:57:03.324Z,997.75
2022-12-23T06:58:03.381Z,997.77
2022-12-23T06:59:03.363Z,997.84
2022-12-23T07:00:03.351Z,997.83
2022-12-23T07:01:03.417Z,997.88
2022-12-23T07:02:03.537Z,997.89
2022-12-23T07:03:03.523Z,997.92
2022-12-23T07:04:03.343Z,997.90
2022-12-23T07:05:03.333Z,997.90
2022-12-23T07:06:03.308Z,997.97
2022-12-23T07:07:03.326Z,997.92
2022-12-23T07:08:03.374Z,997.97
2022-12-23T07:09:03.327Z,997.96
2022-12-23T07:10:11.215Z,997.96
2022-12-23T07:11:03.341Z,997.92
2022-12-23T07:12:11.735Z,997.95
2022-12-23T07:13:03.300Z,997.97
2022-12-23T07:14:11.735Z,998.00
2022-12-23T07:15:11.792Z,998.04
2022-12-23T07:16:15.447Z,998.02
2022-12-23T07:17:03.327Z,998.05
2022-12-23T07:18:11.338Z,998.00
2022-12-23T07:19:03.278Z,998.00
2022-12-23T07:20:03.288Z,998.02
2022-12-23T07:21:03.283Z,998.04
2022-12-23T07:22:03.276Z,998.05
2022-12-23T07:23:03.277Z,998.02
2022-12-23T07:24:03.260Z,998.10
2022-12-23T07:25:03.265Z,998.10
2022-12-23T07:26:03.260Z,998.06
2022-12-23T07:27:03.281Z,998.06
2022-12-23T07:28:03.248Z,998.07
2022-12-23T07:29:03.256Z,998.09
2022-12-23T07:30:03.261Z,998.06
2022-12-23T07:31:03.291Z,998.02
2022-12-23T07:32:03.276Z,998.13
2022-12-23T07:33:03.252Z,998.10
2022-12-23T07:34:03.247Z,998.05
2022-12-23T07:35:03.254Z,998.14
2022-12-23T07:36:03.238Z,998.08
2022-12-23T07:37:03.254Z,998.15
2022-12-23T07:38:03.248Z,998.15
2022-12-23T07:39:03.279Z,998.11
2022-12-23T07:40:08.350Z,998.12
2022-12-23T07:41:03.215Z,998.15
2022-12-23T07:42:25.462Z,998.14
2022-12-23T07:43:03.237Z,998.18
2022-12-23T07:44:03.216Z,998.19
2022-12-23T07:45:03.236Z,998.19
2022-12-23T07:46:03.221Z,998.22
2022-12-23T07:47:03.287Z,998.26
2022-12-23T07:48:03.225Z,998.23
2022-12-23T07:49:03.227Z,998.28
2022-12-23T07:50:03.206Z,998.31
2022-12-23T07:51:03.199Z,998.32
2022-12-23T07:52:03.200Z,998.30
2022-12-23T07:53:03.199Z,998.30
2022-12-23T07:54:03.238Z,998.29
2022-12-23T07:55:03.220Z,998.34
2022-12-23T07:56:03.216Z,998.37
2022-12-23T07:57:03.203Z,998.38
2022-12-23T07:58:03.192Z,998.40
2022-12-23T07:59:03.209Z,998.39
2022-12-23T08:00:03.215Z,998.38
2022-12-23T08:01:03.269Z,998.36
2022-12-23T08:02:03.350Z,998.40
2022-12-23T08:03:03.433Z,998.39
2022-12-23T08:04:03.209Z,998.36
2022-12-23T08:05:03.219Z,998.46
2022-12-23T08:06:03.186Z,998.45
2022-12-23T08:07:03.175Z,998.45
2022-12-23T08:08:03.190Z,998.46
2022-12-23T08:09:03.194Z,998.40
2022-12-23T08:10:03.220Z,998.45
2022-12-23T08:11:03.187Z,998.42
2022-12-23T08:12:03.176Z,998.45
2022-12-23T08:13:03.169Z,998.50
2022-12-23T08:14:03.161Z,998.50
2022-12-23T08:15:03.162Z,998.48
2022-12-23T08:16:03.283Z,998.52
2022-12-23T08:17:03.179Z,998.47
2022-12-23T08:18:03.164Z,998.49
2022-12-23T08:19:03.159Z,998.49
2022-12-23T08:20:03.176Z,998.54
2022-12-23T08:21:03.165Z,998.49
2022-12-23T08:22:03.208Z,998.48
2022-12-23T08:23:03.215Z,998.53
2022-12-23T08:24:03.171Z,998.56
2022-12-23T08:25:03.145Z,998.60
2022-12-23T08:26:03.803Z,998.58
2022-12-23T08:27:03.168Z,998.67
2022-12-23T08:28:03.148Z,998.66
2022-12-23T08:29:03.146Z,998.63
2022-12-23T08:30:03.155Z,998.64
2022-12-23T08:31:03.258Z,998.59
2022-12-23T08:32:03.151Z,998.59
2022-12-23T08:33:03.781Z,998.54
2022-12-23T08:34:04.279Z,998.53
2022-12-23T08:35:03.232Z,998.56
2022-12-23T08:36:03.133Z,998.60
2022-12-23T08:37:03.783Z,998.60
2022-12-23T08:38:04.983Z,998.61
2022-12-23T08:39:04.811Z,998.66
2022-12-23T08:40:05.789Z,998.65
2022-12-23T08:41:07.792Z,998.67
2022-12-23T08:42:05.852Z,998.64
2022-12-23T08:43:05.305Z,998.66
2022-12-23T08:44:03.266Z,998.63
2022-12-23T08:45:03.222Z,998.61
2022-12-23T08:46:03.185Z,998.66
2022-12-23T08:47:03.094Z,998.65
2022-12-23T08:48:08.837Z,998.74
2022-12-23T08:49:03.102Z,998.79
2022-12-23T08:50:03.128Z,998.83
2022-12-23T08:51:03.289Z,998.84
2022-12-23T08:52:03.141Z,998.85
2022-12-23T08:53:03.104Z,998.87
2022-12-23T08:54:03.285Z,998.86
2022-12-23T08:55:03.128Z,998.86
2022-12-23T08:56:03.109Z,998.82
2022-12-23T08:57:03.108Z,998.76
2022-12-23T08:58:03.121Z,998.76
2022-12-23T08:59:03.118Z,998.77
2022-12-23T09:00:03.085Z,998.79
2022-12-23T09:01:03.103Z,998.88
2022-12-23T09:02:03.231Z,998.88
2022-12-23T09:03:03.220Z,998.93
2022-12-23T09:04:03.261Z,998.97
2022-12-23T09:05:03.118Z,998.92
2022-12-23T09:06:03.189Z,998.92
2022-12-23T09:07:03.079Z,998.88
2022-12-23T09:08:03.093Z,998.88
2022-12-23T09:09:03.061Z,998.88
2022-12-23T09:10:03.121Z,998.85
2022-12-23T09:11:03.059Z,998.86
2022-12-23T09:12:03.096Z,998.91
2022-12-23T09:13:03.065Z,998.88
2022-12-23T09:14:03.056Z,998.90
2022-12-23T09:15:03.093Z,998.86
2022-12-23T09:16:03.207Z,998.88
2022-12-23T09:17:03.103Z,998.89
2022-12-23T09:18:03.141Z,998.98
2022-12-23T09:19:03.064Z,999.04
2022-12-23T09:20:03.093Z,999.11
2022-12-23T09:21:03.131Z,999.13
2022-12-23T09:22:03.068Z,999.15
2022-12-23T09:23:03.042Z,999.26
2022-12-23T09:24:03.041Z,999.20
2022-12-23T09:25:05.205Z,999.20
2022-12-23T09:26:03.036Z,999.29
2022-12-23T09:27:03.041Z,999.31
2022-12-23T09:28:03.072Z,999.32
2022-12-23T09:29:03.092Z,999.36
2022-12-23T09:30:03.039Z,999.36
2022-12-23T09:31:03.073Z,999.34
2022-12-23T09:32:03.045Z,999.37
2022-12-23T09:33:03.012Z,999.43
2022-12-23T09:34:03.070Z,999.46
2022-12-23T09:35:03.029Z,999.49
2022-12-23T09:36:13.391Z,999.46
2022-12-23T09:37:03.040Z,999.55
2022-12-23T09:38:03.004Z,999.52
2022-12-23T09:39:03.028Z,999.58
2022-12-23T09:40:03.017Z,999.57
2022-12-23T09:41:02.997Z,999.57
2022-12-23T09:42:03.017Z,999.55
2022-12-23T09:43:03.007Z,999.53
2022-12-23T09:44:03.032Z,999.51
2022-12-23T09:45:03.002Z,999.53
2022-12-23T09:46:03.070Z,999.52
2022-12-23T09:47:03.053Z,999.57
2022-12-23T09:48:07.049Z,999.58
2022-12-23T09:49:02.974Z,999.62
2022-12-23T09:50:02.972Z,999.61
2022-12-23T09:51:02.980Z,999.59
2022-12-23T09:52:02.986Z,999.61
2022-12-23T09:53:03.011Z,999.64
2022-12-23T09:54:02.988Z,999.69
2022-12-23T09:55:02.980Z,999.70
2022-12-23T09:56:02.968Z,999.75
2022-12-23T09:57:02.986Z,999.80
2022-12-23T09:58:02.973Z,999.77
2022-12-23T09:59:02.984Z,999.79
2022-12-23T10:00:02.983Z,999.85
2022-12-23T10:01:02.953Z,999.86
2022-12-23T10:02:03.107Z,999.83
2022-12-23T10:03:03.176Z,999.89
2022-12-23T10:04:02.980Z,999.91
2022-12-23T10:05:02.984Z,999.97
2022-12-23T10:06:02.957Z,999.93
2022-12-23T10:07:03.372Z,999.96
2022-12-23T10:08:02.945Z,999.90
2022-12-23T10:09:02.954Z,999.89
2022-12-23T10:10:02.952Z,999.88
2022-12-23T10:11:02.984Z,999.87
2022-12-23T10:12:02.943Z,999.89
2022-12-23T10:13:02.948Z,999.88
2022-12-23T10:14:02.923Z,999.91
2022-12-23T10:15:02.949Z,999.90
2022-12-23T10:16:02.992Z,999.86
2022-12-23T10:17:02.935Z,999.85
2022-12-23T10:18:02.917Z,999.85
2022-12-23T10:19:02.927Z,999.88
2022-12-23T10:20:02.961Z,999.88
2022-12-23T10:21:02.962Z,999.87
2022-12-23T10:22:02.920Z,999.83
2022-12-23T10:23:02.918Z,999.87
2022-12-23T10:24:02.922Z,999.83
2022-12-23T10:25:02.924Z,999.78
2022-12-23T10:26:02.920Z,999.81
2022-12-23T10:27:02.915Z,999.82
2022-12-23T10:28:02.921Z,999.78
2022-12-23T10:29:02.901Z,999.76
2022-12-23T10:30:14.229Z,999.74
2022-12-23T10:31:38.119Z,999.76
2022-12-23T10:32:03.035Z,999.75
2022-12-23T10:33:02.912Z,999.74
2022-12-23T10:34:02.885Z,999.71
2022-12-23T10:35:02.896Z,999.75
2022-12-23T10:36:02.930Z,999.76
2022-12-23T10:37:02.990Z,999.78
2022-12-23T10:38:02.883Z,999.71
2022-12-23T10:39:02.890Z,999.72
2022-12-23T10:40:02.904Z,999.65
2022-12-23T10:41:08.847Z,999.67
2022-12-23T10:42:02.955Z,999.62
2022-12-23T10:43:02.884Z,999.60
2022-12-23T10:44:02.870Z,999.61
2022-12-23T10:45:02.905Z,999.57
2022-12-23T10:46:02.883Z,999.59
2022-12-23T10:47:02.885Z,999.61
2022-12-23T10:48:04.946Z,999.64
2022-12-23T10:49:02.859Z,999.71
2022-12-23T10:50:02.867Z,999.71
2022-12-23T10:51:02.886Z,999.71
2022-12-23T10:52:02.851Z,999.69
2022-12-23T10:53:03.464Z,999.75
2022-12-23T10:54:02.864Z,999.78
2022-12-23T10:55:02.904Z,999.75
2022-12-23T10:56:02.853Z,999.79
2022-12-23T10:57:02.884Z,999.78
2022-12-23T10:58:02.845Z,999.79
2022-12-23T10:59:02.868Z,999.77
2022-12-23T11:00:02.833Z,999.85
2022-12-23T11:01:04.770Z,999.83
2022-12-23T11:02:03.017Z,999.85
2022-12-23T11:03:03.021Z,999.88
2022-12-23T11:04:02.884Z,999.89
2022-12-23T11:05:02.851Z,999.92
2022-12-23T11:06:02.844Z,999.88
2022-12-23T11:07:41.495Z,999.94
2022-12-23T11:08:02.836Z,999.92
2022-12-23T11:09:02.852Z,999.88
2022-12-23T11:10:02.834Z,999.86
2022-12-23T11:11:02.839Z,999.82
2022-12-23T11:12:02.847Z,999.80
2022-12-23T11:13:02.825Z,999.76
2022-12-23T11:14:02.931Z,999.83
2022-12-23T11:15:02.912Z,999.91
2022-12-23T11:16:02.869Z,999.87
2022-12-23T11:17:02.865Z,999.94
2022-12-23T11:18:02.833Z,999.91
2022-12-23T11:19:02.823Z,999.93
2022-12-23T11:20:06.858Z,999.94
2022-12-23T11:21:02.814Z,999.93
2022-12-23T11:22:02.819Z,999.97
2022-12-23T11:23:02.799Z,999.92
2022-12-23T11:24:02.808Z,999.90
2022-12-23T11:25:02.831Z,999.93
2022-12-23T11:26:02.809Z,999.96
2022-12-23T11:27:02.824Z,999.99
2022-12-23T11:28:02.799Z,999.99
2022-12-23T11:29:02.813Z,999.99
2022-12-23T11:30:02.814Z,999.97
2022-12-23T11:31:02.805Z,999.99
2022-12-23T11:32:02.855Z,999.97
2022-12-23T11:33:02.796Z,999.98
2022-12-23T11:34:02.795Z,999.98
2022-12-23T11:35:02.855Z,999.98
2022-12-23T11:36:02.800Z,999.94
2022-12-23T11:37:07.220Z,999.92
2022-12-23T11:38:02.778Z,999.98
2022-12-23T11:39:02.769Z,999.97
2022-12-23T11:40:02.795Z,999.96
2022-12-23T11:41:02.770Z,1000.01
2022-12-23T11:42:02.780Z,1000.01
2022-12-23T11:43:02.788Z,1000.00
2022-12-23T11:44:02.766Z,999.97
2022-12-23T11:45:02.771Z,999.99
2022-12-23T11:46:02.829Z,999.97
2022-12-23T11:47:02.757Z,1000.00
2022-12-23T11:48:02.791Z,1000.03
2022-12-23T11:49:02.760Z,1000.09
2022-12-23T11:50:02.756Z,1000.13
2022-12-23T11:51:02.746Z,1000.14
2022-12-23T11:52:02.751Z,1000.16
2022-12-23T11:53:02.773Z,1000.15
2022-12-23T11:54:02.777Z,1000.19
2022-12-23T11:55:02.738Z,1000.18
2022-12-23T11:56:02.740Z,1000.22
2022-12-23T11:57:02.804Z,1000.21
2022-12-23T11:58:02.763Z,1000.29
2022-12-23T11:59:02.775Z,1000.30
2022-12-23T12:00:02.751Z,1000.32
2022-12-23T12:01:02.725Z,1000.35
2022-12-23T12:02:02.812Z,1000.34
2022-12-23T12:03:02.800Z,1000.36
2022-12-23T12:04:02.916Z,1000.38
2022-12-23T12:05:02.731Z,1000.37
2022-12-23T12:06:02.754Z,1000.41
2022-12-23T12:07:02.723Z,1000.45
2022-12-23T12:08:02.742Z,1000.41
2022-12-23T12:09:02.721Z,1000.41
2022-12-23T12:10:02.737Z,1000.39
2022-12-23T12:11:02.736Z,1000.42
2022-12-23T12:12:02.726Z,1000.44
2022-12-23T12:13:02.723Z,1000.42
2022-12-23T12:14:02.704Z,1000.41
2022-12-23T12:15:02.716Z,1000.49
2022-12-23T12:16:02.762Z,1000.43
2022-12-23T12:17:02.773Z,1000.47
2022-12-23T12:18:02.699Z,1000.49
2022-12-23T12:19:02.704Z,1000.44
2022-12-23T12:20:02.696Z,1000.44
2022-12-23T12:21:02.691Z,1000.35
2022-12-23T12:22:02.705Z,1000.34
2022-12-23T12:23:02.703Z,1000.35
2022-12-23T12:24:17.888Z,1000.27
2022-12-23T12:25:02.706Z,1000.28
2022-12-23T12:26:02.710Z,1000.26
2022-12-23T12:27:02.705Z,1000.28
2022-12-23T12:28:02.672Z,1000.26
2022-12-23T12:29:02.684Z,1000.29